Time;durP1;ratioP1;P1;durP2;ratioP2;P2;SDS_P1;SDS_P2;PMS_P1;PMS_P2;Temp;Humidity;BMP_temperature;BMP_pressure;BME280_temperature;BME280_humidity;BME280_pressure;Samples;Min_cycle;Max_cycle;Signal;HPM_P1;HPM_P2
2021/03/28 16:44:50;;;;;;;1.52;1.45;;;;;;;12.87;54.06;100019.09;5090359;27;20396;-77
2021/03/28 16:47:22;;;;;;;3.25;1.73;;;;;;;12.90;54.46;100036.91;5071751;28;20043;-74
2021/03/28 16:50:06;;;;;;;0.85;0.82;;;;;;;12.86;54.33;100027.84;5071576;28;20069;-79
2021/03/28 16:52:44;;;;;;;1.63;1.17;;;;;;;12.45;54.41;100003.09;5071690;28;20055;-76
2021/03/28 16:55:24;;;;;;;1.42;1.33;;;;;;;12.27;54.91;99999.78;5071563;28;20111;-77
2021/03/28 16:58:01;;;;;;;1.00;1.00;;;;;;;12.49;55.01;100032.31;5089296;28;20036;-78
2021/03/28 17:00:31;;;;;;;1.48;1.42;;;;;;;12.51;54.93;100029.13;5071578;28;20518;-76
2021/03/28 17:03:19;;;;;;;1.52;1.52;;;;;;;12.49;55.23;100026.78;5071132;28;20033;-78
2021/03/28 17:05:53;;;;;;;1.55;1.45;;;;;;;12.37;56.09;100027.34;5089477;28;20558;-77
2021/03/28 17:08:33;;;;;;;0.65;0.65;;;;;;;12.25;56.80;100044.50;5071367;28;20028;-76
2021/03/28 17:11:24;;;;;;;1.05;1.05;;;;;;;11.68;57.23;100013.91;5063721;28;20024;-78
2021/03/28 17:13:53;;;;;;;0.35;0.35;;;;;;;12.10;56.15;100026.50;5051129;28;20480;-75
2021/03/28 17:16:24;;;;;;;2.08;0.88;;;;;;;12.11;56.03;100028.88;5060995;28;20450;-77
2021/03/28 17:19:11;;;;;;;1.38;1.30;;;;;;;12.14;55.52;100032.78;5071362;28;20040;-77
2021/03/28 17:21:45;;;;;;;3.37;2.40;;;;;;;11.80;56.23;99964.34;5071166;28;20179;-76
2021/03/28 17:24:29;;;;;;;0.77;0.77;;;;;;;12.12;55.54;100047.03;5063504;28;20112;-77
2021/03/28 17:27:04;;;;;;;1.27;1.27;;;;;;;12.07;55.96;100022.56;5051747;28;20036;-80
2021/03/28 17:29:39;;;;;;;0.82;0.82;;;;;;;12.13;55.76;100017.34;5053947;28;20029;-75
2021/03/28 17:32:29;;;;;;;5.07;1.27;;;;;;;12.06;55.76;100045.13;5048111;28;20029;-78
2021/03/28 17:35:03;;;;;;;1.45;1.45;;;;;;;11.58;55.93;99976.81;5065602;28;20399;-75
2021/03/28 17:37:29;;;;;;;1.20;1.20;;;;;;;11.89;57.45;100035.84;5031933;28;20044;-78
2021/03/28 17:40:05;;;;;;;0.95;0.95;;;;;;;11.77;57.97;100050.22;5063940;28;20029;-79
2021/03/28 17:42:30;;;;;;;2.30;2.13;;;;;;;11.72;58.00;100056.97;5064060;28;20068;-77
2021/03/28 17:44:59;;;;;;;1.70;1.40;;;;;;;11.69;57.84;100046.69;5066820;28;20025;-78
2021/03/28 17:48:03;;;;;;;0.47;0.47;;;;;;;11.75;58.27;100044.31;5050498;28;20036;-77
2021/03/28 17:50:34;;;;;;;0.90;0.90;;;;;;;11.40;59.68;100017.72;5051056;28;20396;-79
2021/03/28 17:53:18;;;;;;;1.02;1.02;;;;;;;11.46;59.60;100048.50;5050800;28;20032;-79
2021/03/28 17:55:54;;;;;;;1.88;1.77;;;;;;;11.03;60.51;100027.53;5037845;28;20033;-78
2021/03/28 17:58:27;;;;;;;10.25;8.80;;;;;;;11.23;60.32;100051.88;5037215;28;20025;-78
2021/03/28 18:01:17;;;;;;;2.55;2.38;;;;;;;10.94;60.70;100001.53;5036218;28;20427;-76
2021/03/28 18:03:44;;;;;;;2.85;2.05;;;;;;;11.11;61.74;100067.00;5035789;28;20052;-77
2021/03/28 18:06:12;;;;;;;0.57;0.57;;;;;;;10.70;62.32;100010.81;5036738;28;20029;-75
2021/03/28 18:08:43;;;;;;;1.33;1.33;;;;;;;10.80;61.56;100015.47;5022948;28;20121;-74
2021/03/28 18:11:22;;;;;;;5.38;3.03;;;;;;;10.66;62.42;100012.81;5016880;28;20556;-74
2021/03/28 18:13:53;;;;;;;0.50;0.50;;;;;;;10.54;62.52;100033.41;5025931;28;20033;-77
2021/03/28 18:16:23;;;;;;;1.52;1.42;;;;;;;10.53;62.22;100029.06;5025934;28;20463;-77
2021/03/28 18:18:58;;;;;;;1.52;1.48;;;;;;;10.32;62.51;100007.84;5054316;28;20030;-78
2021/03/28 18:21:29;;;;;;;0.85;0.85;;;;;;;10.59;62.95;100035.75;5028895;28;20515;-79
2021/03/28 18:23:57;;;;;;;1.85;1.75;;;;;;;10.64;63.95;100059.41;5049054;28;20090;-76
2021/03/28 18:26:35;;;;;;;6.90;6.32;;;;;;;10.51;64.22;100070.13;5016948;28;20032;-77
2021/03/28 18:29:22;;;;;;;10.98;4.53;;;;;;;10.44;64.47;100073.72;5034362;28;20071;-78
2021/03/28 18:31:53;;;;;;;4.97;3.00;;;;;;;10.58;64.07;100094.97;5036188;28;20025;-77
2021/03/28 18:34:30;;;;;;;7.18;3.35;;;;;;;10.23;62.85;100023.31;5036202;28;20029;-77
2021/03/28 18:37:11;;;;;;;11.88;6.90;;;;;;;10.58;63.67;100084.72;5026230;28;20488;-78
2021/03/28 18:39:45;;;;;;;9.52;8.52;;;;;;;10.27;63.48;100041.44;5016737;28;20064;-78
2021/03/28 18:42:19;;;;;;;3.20;2.90;;;;;;;10.29;62.36;100049.31;5031248;28;20477;-76
2021/03/28 18:44:48;;;;;;;7.95;4.38;;;;;;;10.59;62.56;100104.84;5036305;28;20124;-78
2021/03/28 18:47:35;;;;;;;2.58;1.13;;;;;;;10.53;63.32;100115.53;5036196;28;20029;-75
2021/03/28 18:50:21;;;;;;;2.70;2.25;;;;;;;10.50;62.30;100113.56;5035954;28;20082;-79
2021/03/28 18:53:06;;;;;;;4.07;1.45;;;;;;;10.31;61.61;100104.97;5024624;28;20124;-78
2021/03/28 18:55:48;;;;;;;2.13;1.92;;;;;;;10.19;62.10;100076.56;5016377;28;20029;-76
2021/03/28 18:58:32;;;;;;;1.85;1.75;;;;;;;10.48;61.25;100104.09;5016336;28;20120;-79
2021/03/28 19:01:21;;;;;;;2.22;1.75;;;;;;;10.37;60.63;100079.25;5025635;28;20032;-79
2021/03/28 19:03:56;;;;;;;2.38;2.10;;;;;;;10.69;61.38;100128.88;5020541;28;20036;-79
2021/03/28 19:06:28;;;;;;;1.83;1.73;;;;;;;10.57;61.79;100143.13;5015460;28;20481;-79
2021/03/28 19:08:54;;;;;;;0.90;0.90;;;;;;;10.24;61.68;100093.94;5016506;28;20481;-80
2021/03/28 19:11:46;;;;;;;4.10;0.65;;;;;;;10.43;61.32;100132.91;5016049;28;20150;-77
2021/03/28 19:14:11;;;;;;;0.50;0.50;;;;;;;10.78;60.15;100170.69;5021187;28;20045;-79
2021/03/28 19:16:37;;;;;;;0.90;0.90;;;;;;;10.46;60.96;100096.22;5016312;28;20542;-78
2021/03/28 19:19:23;;;;;;;2.05;1.70;;;;;;;10.82;60.19;100157.63;5015865;28;20500;-79
2021/03/28 19:21:54;;;;;;;7.90;1.63;;;;;;;10.73;61.12;100143.44;5015753;28;20401;-80
2021/03/28 19:24:38;;;;;;;1.38;1.27;;;;;;;10.61;61.29;100164.03;5016980;28;20029;-78
2021/03/28 19:27:29;;;;;;;5.40;1.83;;;;;;;10.06;61.33;100085.69;5035285;28;20036;-79
2021/03/28 19:29:59;;;;;;;0.75;0.70;;;;;;;10.36;62.68;100146.78;5015581;28;20029;-80
2021/03/28 19:32:27;;;;;;;0.30;0.30;;;;;;;10.29;61.19;100127.47;5043372;28;20027;-78
2021/03/28 19:35:54;;;;;;;0.50;0.50;;;;;;;10.56;59.79;100153.41;5055216;28;20626;-78
2021/03/28 19:38:26;;;;;;;4.07;1.92;;;;;;;10.59;58.14;100118.66;5011752;28;20036;-77
2021/03/28 19:41:04;;;;;;;1.63;1.30;;;;;;;10.69;59.19;100109.53;5055081;28;20043;-77
2021/03/28 19:43:31;;;;;;;1.23;1.20;;;;;;;10.57;59.06;100091.41;5054695;28;20056;-78
2021/03/28 19:46:58;;;;;;;1.25;0.98;;;;;;;10.90;57.37;100134.31;5054024;28;20523;-77
2021/03/28 19:48:50;;;;;;;1.05;1.05;;;;;;;11.02;56.54;100113.69;5072608;28;20039;-78
2021/03/28 19:51:41;;;;;;;0.75;0.75;;;;;;;11.23;54.83;100121.03;5054996;28;20028;-78
2021/03/28 19:54:17;;;;;;;0.70;0.70;;;;;;;11.08;53.95;100075.31;5055239;28;20031;-78
2021/03/28 19:56:50;;;;;;;1.70;1.65;;;;;;;11.04;54.50;100053.22;5055085;28;20033;-79
2021/03/28 19:59:25;;;;;;;0.70;0.70;;;;;;;11.35;54.75;100132.41;5054989;28;20020;-78
2021/03/28 20:01:51;;;;;;;0.45;0.40;;;;;;;11.23;53.85;100071.25;5054714;28;20055;-77
2021/03/28 20:04:19;;;;;;;2.50;1.38;;;;;;;11.09;55.70;100085.97;5072607;28;20021;-80
2021/03/28 20:06:45;;;;;;;;;;;;;;;11.12;57.60;100123.09;5055333;28;20029;-79
2021/03/28 20:09:18;;;;;;;0.50;0.50;;;;;;;10.76;55.18;100064.47;5054691;28;20010;-77
2021/03/28 20:11:45;;;;;;;0.60;0.60;;;;;;;11.23;54.07;100146.72;5054364;28;20115;-77
2021/03/28 20:14:13;;;;;;;1.20;0.95;;;;;;;10.89;53.98;100082.16;5054659;28;20032;-74
2021/03/28 20:16:48;;;;;;;0.80;0.80;;;;;;;11.24;53.86;100134.47;5054497;28;20380;-78
2021/03/28 20:19:21;;;;;;;0.15;0.15;;;;;;;11.01;52.23;100062.34;5037927;28;20128;-77
2021/03/28 20:22:09;;;;;;;0.88;0.88;;;;;;;11.24;53.34;100114.31;5034488;28;20443;-74
2021/03/28 20:24:47;;;;;;;0.20;0.20;;;;;;;10.99;54.63;100111.72;5034427;28;20133;-78
2021/03/28 20:27:16;;;;;;;0.40;0.40;;;;;;;10.85;54.46;100112.59;5034705;28;20096;-78
2021/03/28 20:29:52;;;;;;;0.63;0.63;;;;;;;10.98;55.54;100135.03;5034531;28;20053;-79
2021/03/28 20:32:19;;;;;;;2.05;1.90;;;;;;;10.50;56.00;100080.41;5034349;28;20032;-77
2021/03/28 20:35:01;;;;;;;0.93;0.77;;;;;;;10.78;56.57;100137.53;5032227;28;20079;-75
2021/03/28 20:37:29;;;;;;;0.80;0.77;;;;;;;10.74;57.38;100149.78;5023574;28;20048;-77
2021/03/28 20:39:56;;;;;;;1.35;1.17;;;;;;;10.14;58.58;100095.50;5033708;28;20211;-78
2021/03/28 20:42:25;;;;;;;6.40;1.45;;;;;;;10.33;57.89;100131.00;5020751;28;20041;-79
2021/03/28 20:44:56;;;;;;;0.63;0.63;;;;;;;10.35;59.19;100145.19;5026997;28;20033;-75
2021/03/28 20:47:27;;;;;;;1.35;1.25;;;;;;;9.96;60.52;100117.66;5030251;28;20551;-73
2021/03/28 20:49:55;;;;;;;0.47;0.47;;;;;;;9.78;60.17;100103.09;5033335;28;20051;-74
2021/03/28 20:52:28;;;;;;;0.70;0.70;;;;;;;9.87;60.12;100133.06;5025418;28;20370;-74
2021/03/28 20:54:55;;;;;;;0.95;0.90;;;;;;;9.61;61.09;100101.13;5015440;28;20119;-72
2021/03/28 20:57:29;;;;;;;1.75;1.65;;;;;;;9.62;60.03;100106.28;5015312;28;20044;-73
2021/03/28 20:59:55;;;;;;;0.85;0.82;;;;;;;9.53;61.62;100111.38;5033177;28;20036;-73
2021/03/28 21:02:23;;;;;;;1.55;0.98;;;;;;;9.77;61.45;100145.66;5034914;28;20033;-72
2021/03/28 21:04:50;;;;;;;;;;;;;;;9.66;61.92;100148.44;5017784;28;20041;-73
2021/03/28 21:07:22;;;;;;;1.17;0.77;;;;;;;9.22;62.36;100098.41;5015251;28;19932;-73
2021/03/28 21:09:50;;;;;;;1.45;1.40;;;;;;;9.53;61.09;100132.66;5033872;28;20079;-73
2021/03/28 21:12:16;;;;;;;;;;;;;;;9.65;61.86;100146.06;5035119;28;20090;-73
2021/03/28 21:14:46;;;;;;;0.47;0.47;;;;;;;9.27;61.87;100098.00;5034903;28;19995;-73
2021/03/28 21:17:14;;;;;;;1.63;0.80;;;;;;;9.66;61.21;100162.25;5034913;28;20527;-74
2021/03/28 21:19:46;;;;;;;0.32;0.32;;;;;;;9.23;61.97;100110.97;5035006;28;20052;-74
2021/03/28 21:22:13;;;;;;;2.33;0.75;;;;;;;9.18;62.21;100147.22;5031562;28;20034;-73
2021/03/28 21:24:40;;;;;;;0.40;0.40;;;;;;;8.78;62.78;100096.75;5022045;28;20029;-73
2021/03/28 21:27:08;;;;;;;0.63;0.63;;;;;;;8.99;62.48;100134.59;5034658;28;20472;-73
2021/03/28 21:29:36;;;;;;;1.60;0.82;;;;;;;9.16;63.23;100188.22;5035548;28;20033;-73
2021/03/28 21:32:03;;;;;;;;;;;;;;;9.19;62.72;100182.69;5038965;28;20473;-74
2021/03/28 21:34:30;;;;;;;8.88;2.13;;;;;;;8.89;63.08;100138.91;5038394;28;19999;-73
2021/03/28 21:36:58;;;;;;;0.67;0.67;;;;;;;8.89;63.43;100171.97;5038380;28;20125;-74
2021/03/28 21:39:31;;;;;;;2.58;1.17;;;;;;;8.68;64.49;100146.31;5038159;28;20021;-73
2021/03/28 21:41:58;;;;;;;1.30;0.55;;;;;;;8.66;63.72;100124.66;5028560;28;20499;-73
2021/03/28 21:44:32;;;;;;;1.23;1.13;;;;;;;8.93;62.63;100156.22;5018091;28;20546;-73
2021/03/28 21:47:02;;;;;;;0.40;0.40;;;;;;;8.79;63.16;100125.91;5018289;28;20037;-74
2021/03/28 21:49:43;;;;;;;0.80;0.80;;;;;;;8.83;63.52;100139.66;5018408;28;20029;-72
2021/03/28 21:52:11;;;;;;;1.25;1.20;;;;;;;8.90;64.03;100156.22;5021662;28;20025;-74
2021/03/28 21:54:50;;;;;;;0.35;0.35;;;;;;;8.83;63.80;100154.25;5038139;28;20035;-72
2021/03/28 21:57:26;;;;;;;1.80;1.67;;;;;;;8.92;63.38;100146.38;5038056;28;20029;-72
2021/03/28 21:59:57;;;;;;;0.50;0.50;;;;;;;9.33;62.79;100198.47;5038100;28;20036;-74
2021/03/28 22:02:24;;;;;;;1.95;1.85;;;;;;;8.84;63.39;100128.25;5038286;28;20035;-72
2021/03/28 22:04:50;;;;;;;0.32;0.32;;;;;;;8.95;63.00;100150.34;5037884;28;20024;-76
2021/03/28 22:07:16;;;;;;;0.70;0.70;;;;;;;9.05;62.66;100148.78;5037841;28;20036;-72
2021/03/28 22:09:42;;;;;;;0.85;0.80;;;;;;;9.24;62.55;100187.81;5037694;28;20029;-72
2021/03/28 22:12:16;;;;;;;0.77;0.77;;;;;;;9.10;62.00;100162.19;5019641;28;20037;-74
2021/03/28 22:14:42;;;;;;;1.23;1.23;;;;;;;9.17;61.38;100157.47;5017931;28;20094;-73
2021/03/28 22:17:08;;;;;;;0.30;0.30;;;;;;;9.17;61.95;100140.91;5018524;28;20025;-76
2021/03/28 22:19:34;;;;;;;0.85;0.55;;;;;;;9.28;61.04;100147.22;5036313;28;20036;-74
2021/03/28 22:22:11;;;;;;;1.50;1.40;;;;;;;9.48;59.78;100188.25;5027698;28;20021;-73
2021/03/28 22:24:40;;;;;;;0.73;0.73;;;;;;;9.25;60.56;100130.69;5024295;28;20412;-72
2021/03/28 22:27:08;;;;;;;0.95;0.95;;;;;;;9.22;61.00;100167.34;5037676;28;20032;-73
2021/03/28 22:29:36;;;;;;;;;;;;;;;9.58;60.88;100193.78;5037860;28;20059;-72
2021/03/28 22:32:07;;;;;;;1.17;1.17;;;;;;;9.21;61.02;100158.28;5031415;28;19917;-72
2021/03/28 22:34:40;;;;;;;0.70;0.70;;;;;;;9.10;61.15;100146.41;5018039;28;20124;-74
2021/03/28 22:37:16;;;;;;;3.83;0.60;;;;;;;8.98;61.28;100152.31;5022674;28;20033;-74
2021/03/28 22:39:44;;;;;;;0.43;0.43;;;;;;;9.32;62.07;100191.38;5017635;28;20030;-73
2021/03/28 22:42:10;;;;;;;1.42;1.38;;;;;;;8.82;62.48;100155.41;5017447;28;20025;-78
2021/03/28 22:44:38;;;;;;;0.30;0.30;;;;;;;8.91;62.22;100144.81;5016809;28;20547;-72
2021/03/28 22:47:05;;;;;;;0.45;0.45;;;;;;;9.02;60.31;100160.59;5017719;28;20032;-73
2021/03/28 22:49:33;;;;;;;0.43;0.43;;;;;;;8.98;60.98;100139.31;5017367;28;20044;-74
2021/03/28 22:52:02;;;;;;;0.30;0.30;;;;;;;8.97;60.99;100137.75;5016898;28;20064;-74
2021/03/28 22:54:29;;;;;;;0.32;0.32;;;;;;;9.24;61.32;100189.78;5017359;28;20473;-73
2021/03/28 22:56:57;;;;;;;0.70;0.70;;;;;;;9.04;62.76;100161.00;5017051;28;20026;-72
2021/03/28 22:59:31;;;;;;;0.50;0.50;;;;;;;9.02;63.14;100160.59;5017183;28;20036;-75
2021/03/28 23:02:16;;;;;;;2.47;1.55;;;;;;;8.65;63.27;100136.06;5017783;28;20037;-73
2021/03/28 23:04:45;;;;;;;0.60;0.60;;;;;;;8.42;63.37;100095.84;5021513;28;20082;-74
2021/03/28 23:07:29;;;;;;;0.55;0.55;;;;;;;8.53;62.44;100126.19;5036866;28;20381;-75
2021/03/28 23:09:55;;;;;;;1.50;0.73;;;;;;;8.74;62.90;100140.03;5035220;28;20056;-74
2021/03/28 23:12:26;;;;;;;0.63;0.63;;;;;;;8.66;62.58;100138.44;5017738;28;20030;-74
2021/03/28 23:14:57;;;;;;;1.15;1.10;;;;;;;8.74;62.30;100153.81;5016975;28;20029;-73
2021/03/28 23:17:24;;;;;;;1.23;1.23;;;;;;;8.88;61.72;100180.63;5016864;28;20076;-73
2021/03/28 23:19:52;;;;;;;0.50;0.50;;;;;;;8.64;61.00;100121.50;5016864;28;20040;-73
2021/03/28 23:22:18;;;;;;;3.20;1.05;;;;;;;8.81;60.88;100156.59;5016708;28;20041;-74
2021/03/28 23:24:44;;;;;;;0.85;0.85;;;;;;;9.00;60.56;100177.50;5016594;28;20025;-73
2021/03/28 23:27:10;;;;;;;0.68;0.68;;;;;;;8.78;59.11;100146.34;5016635;28;20029;-74
2021/03/28 23:29:36;;;;;;;0.90;0.90;;;;;;;8.68;59.32;100136.06;5016836;28;20091;-73
2021/03/28 23:32:03;;;;;;;0.43;0.43;;;;;;;8.78;58.91;100151.88;5016480;28;20026;-74
2021/03/28 23:34:29;;;;;;;2.20;1.45;;;;;;;8.66;58.87;100115.63;5016401;28;20025;-75
2021/03/28 23:36:55;;;;;;;0.77;0.77;;;;;;;8.84;59.32;100163.31;5016673;28;20037;-73
2021/03/28 23:39:20;;;;;;;0.20;0.20;;;;;;;8.80;60.75;100179.81;5036266;28;20569;-75
2021/03/28 23:41:48;;;;;;;1.52;1.42;;;;;;;8.47;60.40;100150.56;5036066;28;20032;-76
2021/03/28 23:44:22;;;;;;;0.28;0.28;;;;;;;8.63;61.66;100163.22;5020865;28;20049;-75
2021/03/28 23:46:57;;;;;;;1.02;1.00;;;;;;;8.68;61.91;100180.16;5049338;28;20101;-72
2021/03/28 23:49:27;;;;;;;1.42;1.35;;;;;;;8.75;60.69;100202.22;5016613;28;20029;-75
2021/03/28 23:51:54;;;;;;;0.73;0.73;;;;;;;8.40;60.95;100136.75;5020675;28;20025;-78
2021/03/28 23:54:22;;;;;;;0.25;0.25;;;;;;;8.81;59.67;100197.94;5036248;28;20028;-73
2021/03/28 23:56:48;;;;;;;0.60;0.60;;;;;;;8.46;59.99;100156.44;5035897;28;20060;-72
2021/03/28 23:59:14;;;;;;;1.10;0.70;;;;;;;8.36;60.31;100158.00;5036443;28;20100;-76
